Terminal Aerodrome Forecast
Issued by NWS Detroit/Pontiac, MI

Home | Current Version | Previous Version | Text Only | Print | Product List | Glossary On
Versions: 1 2 3 4 5 6 7 8 9 10 11 12
000
FTUS43 KDTX 261100
TAFFNT
TAF
KFNT 261127Z 2612/2712 21005KT P6SM SCT070 BKN200
      TEMPO 2612/2614 6SM -SHRA OVC070
     FM261400 23009KT P6SM BKN050 BKN120
     FM262000 23009KT P6SM BKN040 BKN080
     FM270000 22008KT P6SM SCT035 BKN050
     FM270500 26003KT 4SM BR SCT120=

USA.gov is the U.S. government's official web portal to all federal, state and local government web resources and services.